Time;durP1;ratioP1;P1;durP2;ratioP2;P2;SDS_P1;SDS_P2;PMS_P1;PMS_P2;Temp;Humidity;BMP_temperature;BMP_pressure;BME280_temperature;BME280_humidity;BME280_pressure;Samples;Min_cycle;Max_cycle;Signal;HPM_P1;HPM_P2
2021/08/11 00:01:32;;;;;;;;;;;;;;;20.82;66.89;99574.66;5133881;27;859;-61
2021/08/11 00:03:59;;;;;;;;;;;;;;;20.80;67.04;99571.56;5133853;27;872;-61
2021/08/11 00:06:26;;;;;;;;;;;;;;;20.78;67.37;99572.06;5133924;27;818;-61
2021/08/11 00:08:52;;;;;;;;;;;;;;;20.77;67.55;99580.97;5133656;27;801;-61
2021/08/11 00:11:19;;;;;;;;;;;;;;;20.75;67.36;99573.00;5133737;27;813;-61
2021/08/11 00:13:46;;;;;;;;;;;;;;;20.73;67.67;99577.53;5133607;27;841;-61
2021/08/11 00:16:12;;;;;;;;;;;;;;;20.69;67.83;99576.94;5133265;27;1905;-61
2021/08/11 00:18:39;;;;;;;;;;;;;;;20.59;67.90;99579.81;5133497;27;798;-61
2021/08/11 00:21:06;;;;;;;;;;;;;;;20.53;68.17;99578.88;5132814;27;821;-61
2021/08/11 00:23:32;;;;;;;;;;;;;;;20.49;68.52;99575.47;5132063;27;1362;-61
2021/08/11 00:25:59;;;;;;;;;;;;;;;20.46;68.41;99570.81;5133372;27;798;-61
2021/08/11 00:28:26;;;;;;;;;;;;;;;20.38;68.63;99580.84;5133302;27;849;-60
2021/08/11 00:30:53;;;;;;;;;;;;;;;20.31;68.70;99583.97;5133249;27;960;-61
2021/08/11 00:33:19;;;;;;;;;;;;;;;20.24;69.01;99573.13;5133216;27;877;-61
2021/08/11 00:35:46;;;;;;;;;;;;;;;20.21;69.14;99574.06;5133055;27;1889;-61
2021/08/11 00:38:13;;;;;;;;;;;;;;;20.21;68.94;99583.25;5133181;27;829;-61
2021/08/11 00:40:39;;;;;;;;;;;;;;;20.23;68.86;99569.53;5133096;27;853;-61
2021/08/11 00:43:07;;;;;;;;;;;;;;;20.27;68.99;99577.75;5133230;27;877;-61
2021/08/11 00:45:34;;;;;;;;;;;;;;;20.23;69.03;99569.53;5132942;27;963;-61
2021/08/11 00:48:01;;;;;;;;;;;;;;;20.24;68.93;99573.13;5133023;27;786;-61
2021/08/11 00:50:26;;;;;;;;;;;;;;;20.29;69.01;99578.88;5132962;27;915;-61
2021/08/11 00:52:54;;;;;;;;;;;;;;;20.49;68.26;99563.47;5132925;27;844;-61
2021/08/11 00:55:20;;;;;;;;;;;;;;;20.58;68.02;99567.03;5132801;27;892;-61
2021/08/11 00:57:48;;;;;;;;;;;;;;;20.64;67.64;99563.56;5132658;27;1874;-61
2021/08/11 01:00:16;;;;;;;;;;;;;;;20.63;67.31;99551.53;5132805;27;813;-60
2021/08/11 01:02:44;;;;;;;;;;;;;;;20.70;66.94;99556.06;5132781;27;870;-61
2021/08/11 01:05:13;;;;;;;;;;;;;;;20.59;67.05;99548.94;5132844;27;868;-61
2021/08/11 01:07:42;;;;;;;;;;;;;;;20.56;67.22;99554.69;5131482;27;1288;-61
2021/08/11 01:10:08;;;;;;;;;;;;;;;20.62;66.94;99552.81;5132691;27;1096;-60
2021/08/11 01:12:36;;;;;;;;;;;;;;;20.61;67.10;99548.44;5132582;27;912;-60
2021/08/11 01:15:04;;;;;;;;;;;;;;;20.44;67.57;99556.50;5132320;27;1203;-61
2021/08/11 01:17:30;;;;;;;;;;;;;;;20.27;68.46;99547.69;5132545;27;1914;-61
2021/08/11 01:19:58;;;;;;;;;;;;;;;20.21;69.05;99555.22;5132532;27;849;-61
2021/08/11 01:22:27;;;;;;;;;;;;;;;20.18;69.55;99556.94;5131272;28;1154;-61
2021/08/11 01:25:06;;;;;;;;;;;;;;;20.18;69.88;99556.94;5132603;27;826;-61
2021/08/11 01:27:45;;;;;;;;;;;;;;;20.18;69.87;99559.75;5132636;27;865;-61
2021/08/11 01:30:12;;;;;;;;;;;;;;;20.16;70.07;99551.03;5132581;27;869;-61
2021/08/11 01:32:48;;;;;;;;;;;;;;;20.13;70.06;99551.97;5134393;27;813;-61
2021/08/11 01:35:17;;;;;;;;;;;;;;;20.11;70.03;99548.06;5136757;27;857;-61
2021/08/11 01:37:45;;;;;;;;;;;;;;;20.09;69.98;99548.53;5136643;27;1897;-61
2021/08/11 01:40:14;;;;;;;;;;;;;;;20.07;69.85;99542.63;5136594;27;877;-61
2021/08/11 01:42:44;;;;;;;;;;;;;;;20.05;69.88;99539.53;5136499;27;854;-60
2021/08/11 01:45:13;;;;;;;;;;;;;;;20.06;69.90;99546.69;5136475;27;901;-61
2021/08/11 01:47:42;;;;;;;;;;;;;;;20.07;70.20;99545.44;5137497;27;758;-61
2021/08/11 01:50:09;;;;;;;;;;;;;;;20.10;70.12;99541.69;5136567;27;874;-60
2021/08/11 01:52:42;;;;;;;;;;;;;;;20.12;69.85;99538.41;5136640;27;793;-61
2021/08/11 01:55:09;;;;;;;;;;;;;;;20.12;69.92;99533.59;5136253;27;885;-61
2021/08/11 01:57:39;;;;;;;;;;;;;;;20.14;69.66;99539.50;5136252;27;1909;-61
2021/08/11 02:00:06;;;;;;;;;;;;;;;20.16;69.54;99539.81;5136212;27;880;-61
2021/08/11 02:02:36;;;;;;;;;;;;;;;20.21;69.55;99537.59;5136210;27;1106;-61
2021/08/11 02:05:02;;;;;;;;;;;;;;;20.25;69.28;99540.97;5136107;27;867;-61
2021/08/11 02:07:29;;;;;;;;;;;;;;;20.27;69.29;99544.88;5136245;27;825;-61
2021/08/11 02:09:56;;;;;;;;;;;;;;;20.28;69.64;99540.03;5136099;27;892;-61
2021/08/11 02:12:22;;;;;;;;;;;;;;;20.28;69.59;99537.25;5135934;27;961;-60
2021/08/11 02:14:49;;;;;;;;;;;;;;;20.25;69.26;99540.97;5136207;27;1138;-61
2021/08/11 02:17:15;;;;;;;;;;;;;;;20.25;69.53;99541.78;5135706;27;1973;-61
2021/08/11 02:19:42;;;;;;;;;;;;;;;20.29;69.20;99533.16;5135785;27;924;-61
2021/08/11 02:22:08;;;;;;;;;;;;;;;20.34;69.23;99532.53;5135846;27;873;-61
2021/08/11 02:24:36;;;;;;;;;;;;;;;20.35;69.17;99537.66;5135823;27;913;-61
2021/08/11 02:27:05;;;;;;;;;;;;;;;20.34;69.03;99540.94;5135824;27;860;-61
2021/08/11 02:29:45;;;;;;;;;;;;;;;20.31;69.12;99541.88;5135679;27;798;-61
2021/08/11 02:32:20;;;;;;;;;;;;;;;20.25;69.21;99538.19;5135625;27;859;-61
2021/08/11 02:34:58;;;;;;;;;;;;;;;20.18;69.66;99539.31;5135611;27;805;-61
2021/08/11 02:37:54;;;;;;;;;;;;;;;20.15;69.52;99529.03;5135550;27;1976;-61
2021/08/11 02:40:21;;;;;;;;;;;;;;;20.14;69.49;99522.66;5117790;27;1139;-61
2021/08/11 02:43:05;;;;;;;;;;;;;;;20.13;69.54;99525.94;5134100;27;1413;-61
2021/08/11 02:45:32;;;;;;;;;;;;;;;20.11;69.62;99532.00;5134676;27;949;-61
2021/08/11 02:48:00;;;;;;;;;;;;;;;20.11;69.75;99525.63;5135313;27;887;-61
2021/08/11 02:50:27;;;;;;;;;;;;;;;20.09;69.91;99523.28;5135314;27;837;-61
2021/08/11 02:52:54;;;;;;;;;;;;;;;20.09;70.43;99517.69;5135176;27;872;-61
2021/08/11 02:55:20;;;;;;;;;;;;;;;20.10;70.42;99524.88;5135188;27;928;-61
2021/08/11 02:57:48;;;;;;;;;;;;;;;20.10;70.35;99527.66;5135061;27;1928;-61
2021/08/11 03:00:14;;;;;;;;;;;;;;;20.08;70.38;99516.16;5135119;27;802;-61
2021/08/11 03:02:41;;;;;;;;;;;;;;;20.05;70.40;99513.50;5135081;27;825;-61
2021/08/11 03:05:08;;;;;;;;;;;;;;;20.05;70.60;99519.13;5134984;27;841;-61
2021/08/11 03:07:36;;;;;;;;;;;;;;;20.06;70.73;99521.44;5133658;27;830;-61
2021/08/11 03:10:04;;;;;;;;;;;;;;;20.03;70.74;99519.56;5134894;27;905;-61
2021/08/11 03:12:31;;;;;;;;;;;;;;;20.03;70.71;99522.38;5134889;27;892;-61
2021/08/11 03:14:58;;;;;;;;;;;;;;;20.06;70.84;99521.44;5134735;27;971;-61
2021/08/11 03:17:25;;;;;;;;;;;;;;;20.10;70.74;99532.47;5134542;27;1988;-61
2021/08/11 03:19:52;;;;;;;;;;;;;;;20.17;70.46;99535.72;5134687;27;875;-61
2021/08/11 03:22:18;;;;;;;;;;;;;;;20.25;70.12;99538.19;5134589;27;790;-61
2021/08/11 03:24:45;;;;;;;;;;;;;;;20.31;70.20;99542.69;5134665;27;855;-61
2021/08/11 03:27:12;;;;;;;;;;;;;;;20.33;69.89;99536.56;5134821;27;789;-61
2021/08/11 03:29:38;;;;;;;;;;;;;;;20.31;70.04;99539.88;5134626;27;853;-60
2021/08/11 03:32:05;;;;;;;;;;;;;;;20.28;69.88;99538.00;5134425;27;810;-61
2021/08/11 03:34:31;;;;;;;;;;;;;;;20.27;69.89;99542.09;5134493;27;892;-61
2021/08/11 03:36:57;;;;;;;;;;;;;;;20.27;69.88;99544.88;5134296;27;1889;-61
2021/08/11 03:39:23;;;;;;;;;;;;;;;20.30;69.90;99546.72;5134644;27;895;-61
2021/08/11 03:41:50;;;;;;;;;;;;;;;20.35;69.62;99546.06;5134331;27;885;-60
2021/08/11 03:44:19;;;;;;;;;;;;;;;20.37;69.80;99546.38;5134243;27;872;-61
2021/08/11 03:46:46;;;;;;;;;;;;;;;20.36;69.60;99547.63;5134224;27;797;-60
2021/08/11 03:49:13;;;;;;;;;;;;;;;20.35;69.82;99554.50;5134165;27;821;-60
2021/08/11 03:51:40;;;;;;;;;;;;;;;20.33;69.72;99561.84;5134253;27;786;-60
2021/08/11 03:54:06;;;;;;;;;;;;;;;20.24;70.34;99562.66;5134082;27;810;-60
2021/08/11 03:56:33;;;;;;;;;;;;;;;20.10;70.69;99566.94;5131649;27;1890;-60
2021/08/11 03:58:59;;;;;;;;;;;;;;;20.05;70.82;99573.19;5133941;27;894;-60
2021/08/11 04:01:26;;;;;;;;;;;;;;;20.03;71.01;99575.69;5133933;27;821;-61
2021/08/11 04:03:52;;;;;;;;;;;;;;;19.98;71.01;99579.91;5134056;27;856;-61
2021/08/11 04:06:19;;;;;;;;;;;;;;;19.98;71.15;99590.34;5133777;27;818;-60
2021/08/11 04:08:46;;;;;;;;;;;;;;;20.02;71.13;99593.78;5133786;27;794;-61
2021/08/11 04:11:13;;;;;;;;;;;;;;;20.11;70.99;99578.94;5133694;27;852;-61
2021/08/11 04:13:39;;;;;;;;;;;;;;;20.19;70.97;99597.00;5133678;27;890;-61
2021/08/11 04:16:06;;;;;;;;;;;;;;;20.29;70.67;99592.91;5133488;27;1905;-61
2021/08/11 04:18:34;;;;;;;;;;;;;;;20.37;70.60;99601.72;5133837;27;880;-61
2021/08/11 04:21:02;;;;;;;;;;;;;;;20.44;70.46;99589.38;5133730;27;877;-61
2021/08/11 04:23:28;;;;;;;;;;;;;;;20.62;70.20;99588.53;5133532;27;794;-61
2021/08/11 04:25:55;;;;;;;;;;;;;;;20.87;69.83;99584.47;5133421;27;852;-61
2021/08/11 04:28:22;;;;;;;;;;;;;;;21.07;69.61;99589.47;5133387;27;891;-61
2021/08/11 04:30:48;;;;;;;;;;;;;;;21.20;68.96;99592.81;5133596;27;853;-61
2021/08/11 04:33:15;;;;;;;;;;;;;;;21.40;68.68;99589.34;5133366;27;900;-61
2021/08/11 04:35:41;;;;;;;;;;;;;;;21.72;68.15;99589.69;5133369;27;1866;-61
2021/08/11 04:38:08;;;;;;;;;;;;;;;22.38;66.74;99589.28;5133376;27;838;-61
2021/08/11 04:40:35;;;;;;;;;;;;;;;23.06;65.24;99587.34;5133684;27;743;-61
2021/08/11 04:43:01;;;;;;;;;;;;;;;23.62;63.37;99587.19;5133867;27;802;-60
2021/08/11 04:45:27;;;;;;;;;;;;;;;24.07;61.77;99587.63;5133449;27;830;-61
2021/08/11 04:47:54;;;;;;;;;;;;;;;24.45;60.88;99591.19;5133023;27;849;-61
2021/08/11 04:50:21;;;;;;;;;;;;;;;24.78;60.56;99589.88;5132869;27;847;-60
2021/08/11 04:52:47;;;;;;;;;;;;;;;24.82;60.44;99584.78;5132890;27;805;-61
2021/08/11 04:55:16;;;;;;;;;;;;;;;24.69;60.57;99590.88;5132972;27;872;-61
2021/08/11 04:57:43;;;;;;;;;;;;;;;24.58;60.72;99613.38;5133192;27;1886;-60
2021/08/11 05:00:10;;;;;;;;;;;;;;;24.52;61.24;99607.72;5133478;27;778;-61
2021/08/11 05:02:37;;;;;;;;;;;;;;;24.83;60.68;99604.03;5133067;27;869;-61
2021/08/11 05:05:06;;;;;;;;;;;;;;;25.28;59.72;99606.28;5132886;27;900;-61
2021/08/11 05:07:32;;;;;;;;;;;;;;;25.80;57.93;99597.41;5132588;27;901;-61
2021/08/11 05:15:09;;;;;;;;;;;;;;;27.12;53.41;99602.34;5681599;22;1610;-62
2021/08/11 05:17:37;;;;;;;;;;;;;;;27.68;52.56;99607.75;5071469;28;1917;-61
2021/08/11 05:20:05;;;;;;;;;;;;;;;28.01;51.11;99617.31;5071632;28;888;-62
2021/08/11 05:22:32;;;;;;;;;;;;;;;28.06;51.60;99622.22;5071534;28;859;-62
2021/08/11 05:24:59;;;;;;;;;;;;;;;29.28;47.65;99623.53;5071541;28;872;-63
2021/08/11 05:27:27;;;;;;;;;;;;;;;30.24;46.03;99617.19;5071651;28;872;-61
2021/08/11 05:29:52;;;;;;;;;;;;;;;30.47;44.86;99616.78;5071394;28;865;-61
2021/08/11 05:32:19;;;;;;;;;;;;;;;29.88;46.67;99619.59;5070250;28;1432;-62
2021/08/11 05:34:45;;;;;;;;;;;;;;;28.98;48.95;99630.09;5071720;28;885;-61
2021/08/11 05:37:12;;;;;;;;;;;;;;;28.13;51.43;99620.84;5071371;28;1915;-61
2021/08/11 05:39:38;;;;;;;;;;;;;;;27.43;53.39;99618.97;5071362;28;900;-61
2021/08/11 05:42:05;;;;;;;;;;;;;;;27.02;54.57;99618.91;5071486;28;908;-61
2021/08/11 05:44:35;;;;;;;;;;;;;;;28.16;52.70;99626.22;5071219;28;806;-62
2021/08/11 05:47:03;;;;;;;;;;;;;;;28.71;51.27;99623.41;5071296;28;833;-61
2021/08/11 05:49:31;;;;;;;;;;;;;;;28.56;50.87;99623.81;5071269;28;924;-61
2021/08/11 05:51:58;;;;;;;;;;;;;;;28.21;51.50;99627.50;5071191;28;900;-61
2021/08/11 05:54:25;;;;;;;;;;;;;;;27.99;52.22;99628.44;5071259;28;940;-62
2021/08/11 05:56:52;;;;;;;;;;;;;;;28.63;51.17;99640.28;5071283;28;1961;-61
2021/08/11 05:59:18;;;;;;;;;;;;;;;29.51;48.72;99632.53;5071195;28;822;-61
2021/08/11 06:01:46;;;;;;;;;;;;;;;29.42;49.11;99644.31;5071120;28;814;-61
2021/08/11 06:04:13;;;;;;;;;;;;;;;29.56;48.66;99630.94;5071182;28;841;-62
2021/08/11 06:06:39;;;;;;;;;;;;;;;30.69;46.03;99627.78;5071105;28;886;-61
2021/08/11 06:09:06;;;;;;;;;;;;;;;30.47;45.98;99631.03;5071102;28;850;-62
2021/08/11 06:11:32;;;;;;;;;;;;;;;30.65;46.06;99623.72;5071037;28;817;-62
2021/08/11 06:13:58;;;;;;;;;;;;;;;31.71;43.43;99629.31;5070899;28;893;-62
2021/08/11 06:16:26;;;;;;;;;;;;;;;31.92;42.84;99622.84;5070700;28;1989;-61
2021/08/11 06:18:56;;;;;;;;;;;;;;;30.83;44.55;99622.06;5071284;28;897;-61
2021/08/11 06:21:24;;;;;;;;;;;;;;;30.73;45.64;99618.91;5074717;28;908;-62
2021/08/11 06:23:53;;;;;;;;;;;;;;;32.44;42.21;99617.41;5074604;28;806;-61
2021/08/11 06:26:20;;;;;;;;;;;;;;;33.82;39.60;99621.00;5074824;28;826;-61
2021/08/11 06:28:47;;;;;;;;;;;;;;;34.45;37.88;99625.44;5074495;28;878;-62
2021/08/11 06:31:16;;;;;;;;;;;;;;;35.05;36.53;99620.91;5074524;28;960;-62
2021/08/11 06:33:44;;;;;;;;;;;;;;;35.50;35.86;99616.34;5074448;28;912;-62
2021/08/11 06:36:11;;;;;;;;;;;;;;;35.79;35.12;99613.13;5074313;28;1969;-62
2021/08/11 06:38:38;;;;;;;;;;;;;;;35.88;34.91;99608.88;5074377;28;908;-61
2021/08/11 06:41:05;;;;;;;;;;;;;;;35.28;35.01;99609.38;5074348;28;827;-62
2021/08/11 06:43:31;;;;;;;;;;;;;;;34.89;35.81;99616.59;5074156;28;869;-62
2021/08/11 06:45:58;;;;;;;;;;;;;;;34.55;36.42;99624.28;5074243;28;896;-62
2021/08/11 06:48:24;;;;;;;;;;;;;;;34.68;36.59;99614.72;5074146;28;904;-62
2021/08/11 06:50:51;;;;;;;;;;;;;;;34.49;37.18;99620.06;5074110;28;834;-62
2021/08/11 06:53:17;;;;;;;;;;;;;;;34.87;36.33;99622.91;5074101;28;940;-62
2021/08/11 06:55:44;;;;;;;;;;;;;;;35.58;35.00;99611.31;5073966;28;1886;-62
2021/08/11 06:58:10;;;;;;;;;;;;;;;36.24;33.27;99619.16;5072741;28;1377;-62
2021/08/11 07:00:36;;;;;;;;;;;;;;;36.45;33.00;99621.66;5073927;28;868;-62
2021/08/11 07:03:02;;;;;;;;;;;;;;;37.01;32.41;99622.03;5073875;28;870;-62
2021/08/11 07:05:29;;;;;;;;;;;;;;;37.59;31.48;99621.72;5073874;28;822;-62
2021/08/11 07:07:55;;;;;;;;;;;;;;;37.98;30.53;99619.81;5073887;28;810;-62
2021/08/11 07:10:22;;;;;;;;;;;;;;;37.94;30.95;99612.94;5073867;28;825;-62
2021/08/11 07:12:49;;;;;;;;;;;;;;;37.99;30.70;99600.38;5073642;28;849;-62
2021/08/11 07:15:15;;;;;;;;;;;;;;;38.02;30.31;99615.72;5073377;28;1198;-62
2021/08/11 07:17:49;;;;;;;;;;;;;;;37.95;30.10;99609.47;5073859;28;1913;-62
2021/08/11 07:20:16;;;;;;;;;;;;;;;38.20;29.88;99612.16;5073923;28;810;-62
2021/08/11 07:22:43;;;;;;;;;;;;;;;38.08;29.91;99610.44;5072278;28;1485;-62
2021/08/11 07:25:09;;;;;;;;;;;;;;;38.26;29.32;99619.75;5073533;28;853;-62
2021/08/11 07:27:36;;;;;;;;;;;;;;;38.50;29.44;99627.44;5073430;28;837;-62
2021/08/11 07:30:04;;;;;;;;;;;;;;;39.12;28.82;99614.75;5073173;28;806;-62
2021/08/11 07:32:31;;;;;;;;;;;;;;;39.47;28.29;99609.38;5073347;28;956;-62
2021/08/11 07:34:57;;;;;;;;;;;;;;;39.39;28.02;99603.78;5073571;28;825;-62
2021/08/11 07:37:23;;;;;;;;;;;;;;;39.46;27.58;99604.22;5073193;28;2000;-63
2021/08/11 07:39:53;;;;;;;;;;;;;;;39.35;27.90;99602.69;5073306;28;850;-62
2021/08/11 07:42:21;;;;;;;;;;;;;;;39.32;27.67;99610.44;5073255;28;853;-63
2021/08/11 07:44:47;;;;;;;;;;;;;;;39.00;27.94;99608.81;5073137;28;849;-63
2021/08/11 07:47:13;;;;;;;;;;;;;;;38.88;28.56;99608.66;5073340;28;849;-62
2021/08/11 07:49:40;;;;;;;;;;;;;;;39.49;27.19;99608.78;5073077;28;857;-63
2021/08/11 07:52:06;;;;;;;;;;;;;;;39.33;27.47;99609.09;5072931;28;877;-62
2021/08/11 07:54:33;;;;;;;;;;;;;;;39.56;27.47;99604.94;5073060;28;905;-62
2021/08/11 07:57:00;;;;;;;;;;;;;;;40.15;26.73;99605.50;5072982;28;1941;-62
2021/08/11 07:59:27;;;;;;;;;;;;;;;40.28;26.36;99602.09;5072801;28;834;-62
2021/08/11 08:01:54;;;;;;;;;;;;;;;40.56;26.09;99599.63;5072743;28;916;-62
2021/08/11 08:04:20;;;;;;;;;;;;;;;40.90;25.88;99606.25;5072765;28;838;-63
2021/08/11 08:06:47;;;;;;;;;;;;;;;40.39;26.38;99594.84;5072656;28;876;-63
2021/08/11 08:09:14;;;;;;;;;;;;;;;40.01;26.80;99605.28;5072783;28;848;-62
2021/08/11 08:11:41;;;;;;;;;;;;;;;40.19;27.12;99600.75;5072746;28;798;-62
2021/08/11 08:14:07;;;;;;;;;;;;;;;39.84;26.45;99594.69;5072727;28;865;-63
2021/08/11 08:16:34;;;;;;;;;;;;;;;39.15;27.58;99599.81;5072214;28;1987;-63
2021/08/11 08:19:01;;;;;;;;;;;;;;;39.32;27.70;99603.91;5072425;28;821;-63
2021/08/11 08:21:27;;;;;;;;;;;;;;;39.85;26.97;99595.44;5072509;28;806;-62
2021/08/11 08:23:54;;;;;;;;;;;;;;;40.34;26.77;99590.94;5072296;28;802;-62
2021/08/11 08:26:21;;;;;;;;;;;;;;;40.27;26.41;99583.19;5072314;28;872;-63
2021/08/11 08:28:48;;;;;;;;;;;;;;;39.99;26.52;99584.88;5072178;28;878;-62
2021/08/11 08:31:15;;;;;;;;;;;;;;;40.09;26.18;99581.91;5072117;28;897;-63
2021/08/11 08:33:42;;;;;;;;;;;;;;;40.89;24.83;99582.31;5072163;28;904;-62
2021/08/11 08:36:09;;;;;;;;;;;;;;;40.65;25.01;99577.75;5071987;28;1890;-63
2021/08/11 08:38:36;;;;;;;;;;;;;;;38.90;26.98;99574.13;5072060;28;818;-64
2021/08/11 08:41:02;;;;;;;;;;;;;;;37.28;29.44;99576.03;5071959;28;913;-63
2021/08/11 08:43:29;;;;;;;;;;;;;;;35.90;31.80;99572.41;5071374;28;881;-63
2021/08/11 08:45:56;;;;;;;;;;;;;;;35.63;32.72;99571.44;5072070;28;878;-62
2021/08/11 08:48:23;;;;;;;;;;;;;;;36.70;30.98;99573.47;5072082;28;846;-64
2021/08/11 08:50:50;;;;;;;;;;;;;;;36.95;30.19;99581.97;5071854;28;919;-63
2021/08/11 08:53:25;;;;;;;;;;;;;;;36.45;31.00;99569.88;5071891;28;853;-63
2021/08/11 08:55:53;;;;;;;;;;;;;;;35.45;31.96;99567.72;5072192;28;1937;-63
2021/08/11 08:58:20;;;;;;;;;;;;;;;36.09;31.52;99571.13;5072112;28;1018;-63
2021/08/11 09:00:47;;;;;;;;;;;;;;;37.75;28.97;99561.75;5072065;28;841;-63
2021/08/11 09:03:14;;;;;;;;;;;;;;;37.87;28.28;99559.78;5071982;28;872;-63
2021/08/11 09:05:41;;;;;;;;;;;;;;;37.15;29.13;99559.88;5071939;28;837;-63
2021/08/11 09:08:08;;;;;;;;;;;;;;;37.17;28.90;99560.03;5071990;28;861;-64
2021/08/11 09:10:36;;;;;;;;;;;;;;;37.48;28.70;99559.59;5070493;28;1298;-63
2021/08/11 09:13:07;;;;;;;;;;;;;;;37.75;28.84;99555.97;5071677;28;900;-63
2021/08/11 09:15:36;;;;;;;;;;;;;;;37.91;28.67;99554.34;5071593;28;1205;-63
2021/08/11 09:18:22;;;;;;;;;;;;;;;38.29;27.69;99555.84;5071529;28;1910;-65
2021/08/11 09:21:12;;;;;;;;;;;;;;;38.09;27.88;99555.03;5071135;28;1073;-63
2021/08/11 09:23:46;;;;;;;;;;;;;;;38.18;27.73;99550.66;5060825;28;1138;-64
2021/08/11 09:26:14;;;;;;;;;;;;;;;37.97;27.92;99551.19;5071505;28;889;-63
2021/08/11 09:28:42;;;;;;;;;;;;;;;38.11;27.91;99542.88;5071557;28;830;-63
2021/08/11 09:31:27;;;;;;;;;;;;;;;37.82;28.71;99543.53;5071391;28;873;-64
2021/08/11 09:33:57;;;;;;;;;;;;;;;36.87;29.21;99546.00;5071470;28;869;-63
2021/08/11 09:36:25;;;;;;;;;;;;;;;37.11;28.69;99542.25;5071255;28;1953;-63
2021/08/11 09:38:59;;;;;;;;;;;;;;;37.55;28.77;99547.19;5071376;28;861;-63
2021/08/11 09:41:26;;;;;;;;;;;;;;;37.17;29.09;99537.00;5071353;28;850;-65
2021/08/11 09:44:07;;;;;;;;;;;;;;;36.77;30.33;99532.28;5071538;28;912;-63
2021/08/11 09:46:34;;;;;;;;;;;;;;;36.12;31.23;99529.66;5071272;28;910;-63
2021/08/11 09:49:01;;;;;;;;;;;;;;;36.34;31.19;99527.97;5071425;28;829;-63
2021/08/11 09:51:28;;;;;;;;;;;;;;;36.59;30.55;99516.34;5069912;28;1557;-63
2021/08/11 09:53:55;;;;;;;;;;;;;;;35.96;30.89;99523.31;5073301;28;841;-63
2021/08/11 09:56:30;;;;;;;;;;;;;;;34.72;33.10;99508.16;5075170;28;1884;-62
2021/08/11 09:59:05;;;;;;;;;;;;;;;33.81;34.98;99512.66;5075166;28;861;-62
2021/08/11 10:01:31;;;;;;;;;;;;;;;33.63;34.94;99517.41;5075113;28;830;-63
2021/08/11 10:03:59;;;;;;;;;;;;;;;34.22;34.17;99522.97;5075213;28;845;-63
2021/08/11 10:06:27;;;;;;;;;;;;;;;34.94;33.46;99523.72;5074833;28;937;-64
2021/08/11 10:08:54;;;;;;;;;;;;;;;35.13;32.67;99514.66;5074960;28;853;-63
2021/08/11 10:11:36;;;;;;;;;;;;;;;35.45;32.39;99511.03;5073392;28;1361;-62
2021/08/11 10:14:10;;;;;;;;;;;;;;;35.89;31.87;99501.91;5074788;28;1087;-63
2021/08/11 10:16:37;;;;;;;;;;;;;;;36.12;30.85;99506.66;5074476;28;1901;-63
2021/08/11 10:19:04;;;;;;;;;;;;;;;36.43;30.79;99503.50;5074660;28;996;-63
2021/08/11 10:33:47;;;;;;;;;;;;;;;36.15;30.47;99488.28;5074790;28;691;-63
2021/08/11 10:36:15;;;;;;;;;;;;;;;36.02;30.79;99488.53;5074320;28;1902;-63
2021/08/11 10:38:44;;;;;;;;;;;;;;;36.35;29.49;99492.81;5074417;28;877;-64
2021/08/11 10:41:12;;;;;;;;;;;;;;;36.54;28.79;99494.34;5074244;28;854;-64
2021/08/11 10:43:40;;;;;;;;;;;;;;;36.58;28.48;99492.56;5074406;28;866;-63
2021/08/11 10:46:08;;;;;;;;;;;;;;;36.62;28.91;99488.53;5074188;28;834;-63
2021/08/11 10:48:35;;;;;;;;;;;;;;;36.52;29.08;99506.47;5074481;28;806;-64
2021/08/11 10:51:02;;;;;;;;;;;;;;;36.54;29.00;99500.13;5074493;28;878;-63
2021/08/11 10:53:29;;;;;;;;;;;;;;;36.74;27.78;99498.16;5074376;28;888;-64
2021/08/11 10:55:57;;;;;;;;;;;;;;;37.25;27.76;99490.78;5074340;28;1893;-63
2021/08/11 10:58:41;;;;;;;;;;;;;;;36.78;27.33;99479.09;5074178;28;837;-64
2021/08/11 11:01:26;;;;;;;;;;;;;;;35.20;29.23;99482.25;5072631;28;1175;-64
2021/08/11 11:03:53;;;;;;;;;;;;;;;34.50;30.72;99483.88;5073881;28;861;-64
2021/08/11 11:06:20;;;;;;;;;;;;;;;34.35;30.86;99482.59;5073287;28;817;-64
2021/08/11 11:08:47;;;;;;;;;;;;;;;34.51;31.08;99482.56;5073734;28;992;-64
2021/08/11 11:11:32;;;;;;;;;;;;;;;34.48;31.12;99478.75;5073806;28;830;-64
2021/08/11 11:13:58;;;;;;;;;;;;;;;34.08;31.06;99479.38;5073755;28;1031;-64
2021/08/11 11:16:42;;;;;;;;;;;;;;;33.66;31.81;99471.19;5073367;28;1992;-64
2021/08/11 11:19:09;;;;;;;;;;;;;;;33.67;31.97;99469.09;5073653;28;904;-63
2021/08/11 11:21:35;;;;;;;;;;;;;;;34.80;30.44;99460.06;5073871;28;885;-63
2021/08/11 11:24:02;;;;;;;;;;;;;;;35.81;28.42;99460.97;5073581;28;888;-64
2021/08/11 11:26:33;;;;;;;;;;;;;;;36.50;27.76;99465.25;5073495;28;857;-63
2021/08/11 11:29:02;;;;;;;;;;;;;;;36.97;26.65;99463.31;5073464;28;821;-63
2021/08/11 11:31:30;;;;;;;;;;;;;;;37.08;25.84;99462.00;5073368;28;833;-63
2021/08/11 11:34:15;;;;;;;;;;;;;;;37.54;25.79;99455.56;5072063;28;1164;-63
2021/08/11 11:36:41;;;;;;;;;;;;;;;37.97;25.54;99450.22;5073115;28;1882;-63
2021/08/11 11:39:09;;;;;;;;;;;;;;;37.57;25.52;99458.03;5073220;28;810;-63
2021/08/11 11:41:36;;;;;;;;;;;;;;;36.73;26.90;99459.97;5073251;28;826;-63
2021/08/11 11:44:23;;;;;;;;;;;;;;;36.56;26.91;99457.13;5073136;28;884;-63
2021/08/11 11:46:49;;;;;;;;;;;;;;;36.88;27.16;99443.88;5073189;28;830;-63
2021/08/11 11:49:17;;;;;;;;;;;;;;;36.63;26.84;99459.16;5073043;28;893;-63
2021/08/11 11:51:44;;;;;;;;;;;;;;;36.17;28.00;99457.56;5072958;28;971;-64
2021/08/11 11:54:11;;;;;;;;;;;;;;;35.82;28.35;99438.72;5073029;28;881;-62
2021/08/11 11:56:38;;;;;;;;;;;;;;;36.42;27.99;99442.31;5072837;28;1889;-63
2021/08/11 11:59:07;;;;;;;;;;;;;;;36.87;27.15;99443.13;5072809;28;881;-64
2021/08/11 12:01:38;;;;;;;;;;;;;;;36.65;27.40;99439.16;5072867;28;896;-64
2021/08/11 12:04:04;;;;;;;;;;;;;;;36.85;27.04;99450.81;5072906;28;810;-63
2021/08/11 12:06:41;;;;;;;;;;;;;;;36.48;26.85;99439.16;5072726;28;834;-63
2021/08/11 12:09:07;;;;;;;;;;;;;;;35.70;28.35;99436.34;5072546;28;1143;-63
2021/08/11 12:11:35;;;;;;;;;;;;;;;35.85;28.34;99435.44;5072625;28;809;-63
2021/08/11 12:14:04;;;;;;;;;;;;;;;36.19;27.60;99425.34;5072747;28;1090;-64
2021/08/11 12:16:40;;;;;;;;;;;;;;;37.07;26.80;99418.03;5071365;28;1909;-63
2021/08/11 12:19:11;;;;;;;;;;;;;;;37.93;26.06;99435.50;5071101;28;1206;-63
2021/08/11 12:21:39;;;;;;;;;;;;;;;37.90;24.62;99428.81;5072375;28;865;-62
2021/08/11 12:24:05;;;;;;;;;;;;;;;36.97;25.91;99432.38;5072306;28;874;-62
2021/08/11 12:26:32;;;;;;;;;;;;;;;37.09;25.68;99423.22;5072290;28;901;-62
2021/08/11 12:29:00;;;;;;;;;;;;;;;37.95;24.89;99415.47;5072281;28;830;-61
2021/08/11 12:31:28;;;;;;;;;;;;;;;38.95;24.08;99416.34;5072305;28;794;-62
2021/08/11 12:33:57;;;;;;;;;;;;;;;39.58;23.57;99414.25;5072261;28;877;-61
2021/08/11 12:36:26;;;;;;;;;;;;;;;40.06;22.96;99415.34;5072047;28;1913;-61
2021/08/11 12:38:59;;;;;;;;;;;;;;;39.66;22.97;99423.50;5071937;28;961;-61
2021/08/11 12:41:26;;;;;;;;;;;;;;;38.38;23.88;99418.69;5072035;28;814;-62
2021/08/11 12:43:54;;;;;;;;;;;;;;;36.74;25.81;99423.31;5072120;28;946;-62
2021/08/11 12:46:39;;;;;;;;;;;;;;;36.51;26.08;99417.81;5072175;28;781;-65
2021/08/11 12:49:14;;;;;;;;;;;;;;;35.97;27.37;99422.06;5071900;28;885;-63
2021/08/11 12:51:41;;;;;;;;;;;;;;;36.80;26.13;99423.81;5071916;28;860;-64
2021/08/11 12:54:07;;;;;;;;;;;;;;;37.76;25.53;99425.59;5071885;28;837;-63
2021/08/11 12:56:53;;;;;;;;;;;;;;;38.12;24.49;99415.34;5071688;28;1885;-63
2021/08/11 12:59:20;;;;;;;;;;;;;;;38.44;24.28;99421.28;5071841;28;814;-64
2021/08/11 13:01:46;;;;;;;;;;;;;;;37.25;24.68;99426.63;5070495;28;1331;-64
2021/08/11 13:04:16;;;;;;;;;;;;;;;35.53;27.19;99424.78;5071671;28;881;-64
2021/08/11 13:06:44;;;;;;;;;;;;;;;35.23;28.13;99417.16;5071667;28;942;-64
2021/08/11 13:09:20;;;;;;;;;;;;;;;36.32;27.20;99413.47;5070419;28;1354;-64
2021/08/11 13:11:54;;;;;;;;;;;;;;;37.57;25.23;99422.69;5071596;28;826;-64
2021/08/11 13:14:40;;;;;;;;;;;;;;;38.43;24.66;99408.97;5071731;28;1025;-63
2021/08/11 13:17:07;;;;;;;;;;;;;;;38.73;24.07;99416.22;5071230;28;1982;-64
2021/08/11 13:19:32;;;;;;;;;;;;;;;38.76;24.12;99386.13;5071804;28;811;-64
2021/08/11 13:21:59;;;;;;;;;;;;;;;38.00;24.75;99418.06;5071447;28;853;-64
2021/08/11 13:24:26;;;;;;;;;;;;;;;37.18;26.25;99422.53;5071554;28;821;-63
2021/08/11 13:26:57;;;;;;;;;;;;;;;37.64;27.61;99415.25;5071479;28;798;-63
2021/08/11 13:29:27;;;;;;;;;;;;;;;38.18;27.99;99412.16;5071207;28;893;-64